Time;durP1;ratioP1;P1;durP2;ratioP2;P2;SDS_P1;SDS_P2;PMS_P1;PMS_P2;Temp;Humidity;BMP_temperature;BMP_pressure;BME280_temperature;BME280_humidity;BME280_pressure;Samples;Min_cycle;Max_cycle;Signal;HPM_P1;HPM_P2
2022/08/11 00:01:29;;;;;;;1.00;0.63;;;;;;;;;;5009984;28;20137;-71
2022/08/11 00:04:03;;;;;;;2.90;0.85;;;;;;;;;;5001886;28;20079;-71
2022/08/11 00:06:31;;;;;;;0.35;0.35;;;;;;;;;;5013285;28;20105;-71
2022/08/11 00:08:59;;;;;;;0.50;0.40;;;;;;;;;;5014540;28;20057;-72
2022/08/11 00:11:36;;;;;;;2.53;0.50;;;;;;;;;;5015473;28;20037;-71
2022/08/11 00:14:03;;;;;;;2.57;0.50;;;;;;;;;;5006181;28;20380;-71
2022/08/11 00:16:31;;;;;;;2.43;1.03;;;;;;;;;;5015109;28;20060;-71
2022/08/11 00:18:59;;;;;;;4.03;1.27;;;;;;;;;;5011172;28;20472;-71
2022/08/11 00:21:26;;;;;;;0.90;0.47;;;;;;;;;;5009360;28;20073;-71
2022/08/11 00:23:54;;;;;;;0.97;0.53;;;;;;;;;;5009069;28;20018;-72
2022/08/11 00:26:22;;;;;;;1.20;0.40;;;;;;;;;;5009382;28;20724;-71
2022/08/11 00:28:50;;;;;;;1.20;0.70;;;;;;;;;;5012245;28;20041;-71
2022/08/11 00:31:30;;;;;;;0.77;0.40;;;;;;;;;;5014901;28;20389;-71
2022/08/11 00:33:58;;;;;;;1.77;0.57;;;;;;;;;;5013817;28;20377;-72
2022/08/11 00:36:39;;;;;;;2.77;0.50;;;;;;;;;;5014537;28;20393;-72
2022/08/11 00:39:07;;;;;;;0.90;0.50;;;;;;;;;;5014701;28;20430;-71
2022/08/11 00:41:39;;;;;;;1.33;0.50;;;;;;;;;;5009814;28;20131;-72
2022/08/11 00:44:08;;;;;;;1.67;1.07;;;;;;;;;;5009156;28;20076;-71
2022/08/11 00:46:47;;;;;;;1.33;1.00;;;;;;;;;;5008889;28;20026;-72
2022/08/11 00:49:14;;;;;;;1.97;1.13;;;;;;;;;;5008749;28;20030;-72
2022/08/11 00:51:59;;;;;;;2.43;1.10;;;;;;;;;;5013538;28;20091;-72
2022/08/11 00:54:44;;;;;;;1.07;0.67;;;;;;;;;;5014236;28;20037;-71
2022/08/11 00:57:29;;;;;;;2.28;0.88;;;;;;;;;;5014224;28;20591;-73
2022/08/11 01:00:11;;;;;;;6.83;0.73;;;;;;;;;;5013821;28;20052;-71
2022/08/11 01:03:01;;;;;;;2.33;1.03;;;;;;;;;;5011893;28;20044;-71
2022/08/11 01:05:51;;;;;;;2.23;1.33;;;;;;;;;;5009021;28;20041;-71
2022/08/11 01:08:20;;;;;;;4.63;2.63;;;;;;;;;;5008288;28;20372;-71
2022/08/11 01:10:50;;;;;;;22.10;3.27;;;;;;;;;;5008685;28;20511;-71
2022/08/11 01:13:32;;;;;;;8.27;2.13;;;;;;;;;;5011375;28;20033;-71
2022/08/11 01:16:27;;;;;;;4.17;1.83;;;;;;;;;;5014041;28;20026;-71
2022/08/11 01:19:12;;;;;;;3.30;1.75;;;;;;;;;;5014034;28;20030;-71
2022/08/11 01:21:54;;;;;;;5.20;1.83;;;;;;;;;;4994515;28;20050;-72
2022/08/11 01:24:47;;;;;;;11.67;5.23;;;;;;;;;;4994104;28;20347;-71
2022/08/11 01:27:32;;;;;;;7.13;2.90;;;;;;;;;;4992393;28;20021;-71
2022/08/11 01:30:25;;;;;;;4.20;1.27;;;;;;;;;;5008399;28;20030;-71
2022/08/11 01:33:10;;;;;;;5.37;2.17;;;;;;;;;;5008278;28;20054;-71
2022/08/11 01:35:43;;;;;;;2.67;1.07;;;;;;;;;;5011107;28;20026;-71
2022/08/11 01:38:28;;;;;;;1.50;0.70;;;;;;;;;;5013728;28;20037;-72
2022/08/11 01:41:01;;;;;;;2.83;0.70;;;;;;;;;;5013559;28;20036;-71
2022/08/11 01:46:33;;;;;;;2.00;0.73;;;;;;;;;;5013649;28;20044;-71
2022/08/11 01:49:10;;;;;;;3.77;0.90;;;;;;;;;;5008082;28;20412;-71
2022/08/11 01:51:49;;;;;;;1.73;0.77;;;;;;;;;;5008119;28;20034;-71
2022/08/11 01:54:27;;;;;;;0.93;0.60;;;;;;;;;;5008123;28;20033;-72
2022/08/11 01:56:55;;;;;;;1.40;0.60;;;;;;;;;;5007955;28;20033;-71
2022/08/11 01:59:33;;;;;;;3.03;0.67;;;;;;;;;;5012631;28;20029;-71
2022/08/11 02:02:02;;;;;;;1.03;0.70;;;;;;;;;;4998206;28;20022;-71
2022/08/11 02:04:35;;;;;;;2.73;0.97;;;;;;;;;;5013029;28;20084;-71
2022/08/11 02:07:04;;;;;;;4.20;1.07;;;;;;;;;;5012850;28;20032;-71
2022/08/11 02:09:49;;;;;;;1.73;1.23;;;;;;;;;;5011204;28;20034;-71
2022/08/11 02:12:16;;;;;;;;;;;;;;;;;;5008236;28;20146;-71
2022/08/11 02:15:01;;;;;;;2.20;1.37;;;;;;;;;;5006771;28;20364;-71
2022/08/11 02:17:37;;;;;;;1.08;0.65;;;;;;;;;;5007454;28;20513;-71
2022/08/11 02:26:22;;;;;;;7.93;1.40;;;;;;;;;;5004977;28;20061;-71
2022/08/11 02:28:53;;;;;;;1.20;0.80;;;;;;;;;;5012643;28;20034;-71
2022/08/11 02:34:05;;;;;;;;;;;;;;;;;;5007321;28;20048;-71
2022/08/11 02:37:01;;;;;;;1.17;0.77;;;;;;;;;;5007099;28;20305;-70
2022/08/11 02:39:38;;;;;;;1.07;0.60;;;;;;;;;;4976589;28;20789;-70
2022/08/11 02:42:22;;;;;;;1.20;0.83;;;;;;;;;;5008213;28;20022;-70
2022/08/11 02:45:07;;;;;;;2.55;1.10;;;;;;;;;;5012233;28;20022;-70
2022/08/11 02:47:37;;;;;;;;;;;;;;;;;;5012706;28;20038;-70
2022/08/11 02:50:03;;;;;;;3.37;1.30;;;;;;;;;;5012402;28;19906;-70
2022/08/11 02:52:48;;;;;;;3.07;1.20;;;;;;;;;;5012479;28;20034;-70
2022/08/11 02:55:15;;;;;;;1.92;1.10;;;;;;;;;;5008159;28;20022;-70
2022/08/11 02:57:43;;;;;;;3.60;1.30;;;;;;;;;;5006638;28;20171;-70
2022/08/11 03:00:10;;;;;;;2.07;1.40;;;;;;;;;;4987661;28;20038;-70
2022/08/11 03:02:49;;;;;;;3.93;1.97;;;;;;;;;;4991019;28;20374;-70
2022/08/11 03:05:16;;;;;;;5.00;1.73;;;;;;;;;;5010149;28;20083;-70
2022/08/11 03:08:01;;;;;;;1.87;1.07;;;;;;;;;;5012146;28;20065;-70
2022/08/11 03:16:43;;;;;;;3.17;1.23;;;;;;;;;;5012665;28;20018;-70
2022/08/11 03:19:23;;;;;;;0.70;0.55;;;;;;;;;;5010950;28;20120;-70
2022/08/11 03:21:49;;;;;;;;;;;;;;;;;;5011968;28;20052;-70
2022/08/11 03:24:21;;;;;;;3.97;1.23;;;;;;;;;;5010684;28;20387;-71
2022/08/11 03:27:09;;;;;;;1.70;1.00;;;;;;;;;;5013000;28;20032;-71
2022/08/11 03:30:01;;;;;;;1.80;1.00;;;;;;;;;;5016092;28;20033;-70
2022/08/11 03:32:37;;;;;;;1.00;0.90;;;;;;;;;;5015897;28;20109;-71
2022/08/11 03:35:05;;;;;;;0.63;0.60;;;;;;;;;;5015879;28;20030;-70
2022/08/11 03:37:50;;;;;;;0.80;0.50;;;;;;;;;;5015874;28;20029;-71
2022/08/11 03:43:34;;;;;;;0.87;0.80;;;;;;;;;;5010884;28;20092;-71
2022/08/11 03:46:00;;;;;;;;;;;;;;;;;;5014855;28;20080;-78
2022/08/11 03:48:45;;;;;;;1.47;0.90;;;;;;;;;;5012052;28;19928;-77
2022/08/11 03:51:31;;;;;;;5.70;1.08;;;;;;;;;;5015194;28;20069;-79
2022/08/11 03:54:36;;;;;;;1.97;1.00;;;;;;;;;;5014758;28;20029;-72
2022/08/11 03:57:34;;;;;;;0.63;0.60;;;;;;;;;;4941651;29;20039;-71
2022/08/11 04:00:24;;;;;;;1.33;0.90;;;;;;;;;;4936959;29;20119;-71
2022/08/11 04:03:09;;;;;;;1.10;0.77;;;;;;;;;;4989995;28;20074;-71
2022/08/11 04:05:38;;;;;;;1.05;0.75;;;;;;;;;;5010054;28;20029;-72
2022/08/11 04:08:17;;;;;;;2.67;0.93;;;;;;;;;;5009975;28;20025;-72
2022/08/11 04:10:56;;;;;;;2.33;0.80;;;;;;;;;;5010213;28;20022;-72
2022/08/11 04:13:41;;;;;;;2.40;1.40;;;;;;;;;;5014780;28;20029;-73
2022/08/11 04:16:13;;;;;;;3.20;1.35;;;;;;;;;;5015020;28;20081;-72
2022/08/11 04:18:58;;;;;;;5.33;1.00;;;;;;;;;;5015022;28;20054;-71
2022/08/11 04:22:01;;;;;;;1.70;1.00;;;;;;;;;;5015027;28;20025;-72
2022/08/11 04:24:35;;;;;;;1.43;1.00;;;;;;;;;;4949600;28;20490;-72
2022/08/11 04:27:02;;;;;;;11.20;1.15;;;;;;;;;;5000708;28;20050;-73
2022/08/11 04:29:28;;;;;;;1.23;1.00;;;;;;;;;;5009954;28;20452;-72
2022/08/11 04:32:14;;;;;;;1.73;1.27;;;;;;;;;;5009791;28;20030;-71
2022/08/11 04:34:59;;;;;;;2.57;1.07;;;;;;;;;;5013442;28;20080;-71
2022/08/11 04:37:45;;;;;;;3.28;1.55;;;;;;;;;;5014253;28;20080;-72
2022/08/11 04:40:24;;;;;;;2.83;1.67;;;;;;;;;;5014544;28;20022;-72
2022/08/11 04:46:06;;;;;;;1.55;1.20;;;;;;;;;;5012907;28;20107;-71
2022/08/11 05:02:44;;;;;;;1.88;1.33;;;;;;;;;;5014179;28;20037;-71
2022/08/11 05:08:14;;;;;;;1.92;0.98;;;;;;;;;;5012701;28;20049;-72
2022/08/11 05:10:44;;;;;;;3.55;1.15;;;;;;;;;;5008581;28;20025;-71
2022/08/11 05:35:58;;;;;;;1.87;1.37;;;;;;;;;;5007882;28;20108;-71
2022/08/11 05:58:11;;;;;;;1.40;1.20;;;;;;;;;;5008243;28;20512;-71
2022/08/11 06:00:42;;;;;;;1.00;0.87;;;;;;;;;;5007616;28;20774;-72
2022/08/11 06:03:09;;;;;;;1.60;1.17;;;;;;;;;;5009906;28;20034;-71
2022/08/11 06:05:37;;;;;;;2.43;1.53;;;;;;;;;;5012822;28;20021;-70
2022/08/11 06:08:07;;;;;;;1.27;0.90;;;;;;;;;;5012740;28;20065;-71
2022/08/11 06:10:39;;;;;;;1.47;1.03;;;;;;;;;;5012689;28;20084;-70
2022/08/11 06:13:06;;;;;;;1.27;1.00;;;;;;;;;;5012664;28;20037;-70
2022/08/11 06:15:34;;;;;;;2.23;1.40;;;;;;;;;;5009930;28;20034;-71
2022/08/11 06:18:01;;;;;;;2.87;1.83;;;;;;;;;;5007873;28;20053;-71
2022/08/11 06:20:36;;;;;;;2.27;1.40;;;;;;;;;;5007318;28;20030;-71
2022/08/11 06:23:03;;;;;;;2.70;1.30;;;;;;;;;;5007725;28;20354;-71
2022/08/11 06:25:35;;;;;;;1.27;0.87;;;;;;;;;;5009750;28;20088;-70
2022/08/11 06:28:05;;;;;;;1.23;1.03;;;;;;;;;;5012368;28;20058;-71
2022/08/11 06:30:43;;;;;;;1.57;1.10;;;;;;;;;;5012548;28;20022;-71
2022/08/11 06:33:17;;;;;;;2.10;1.23;;;;;;;;;;5012941;28;20113;-71
2022/08/11 06:35:44;;;;;;;7.15;1.10;;;;;;;;;;5012478;28;20061;-70
2022/08/11 06:38:24;;;;;;;2.30;1.40;;;;;;;;;;5009557;28;20033;-71
2022/08/11 06:43:52;;;;;;;4.60;1.60;;;;;;;;;;5006569;28;20096;-71
2022/08/11 06:46:29;;;;;;;2.30;1.23;;;;;;;;;;5006439;28;20026;-71
2022/08/11 06:48:56;;;;;;;6.90;1.67;;;;;;;;;;5011844;28;20084;-71
2022/08/11 06:51:23;;;;;;;2.17;1.20;;;;;;;;;;5012292;28;20473;-70
2022/08/11 06:53:51;;;;;;;1.67;1.00;;;;;;;;;;5012236;28;20037;-70
2022/08/11 07:02:13;;;;;;;1.20;1.10;;;;;;;;;;5006872;28;20048;-71
2022/08/11 07:04:43;;;;;;;3.80;1.53;;;;;;;;;;5007492;28;20720;-71
2022/08/11 07:15:48;;;;;;;2.77;1.67;;;;;;;;;;5007834;28;20111;-71
2022/08/11 07:29:42;;;;;;;1.30;1.00;;;;;;;;;;5006247;28;20048;-71
2022/08/11 07:32:14;;;;;;;0.93;0.77;;;;;;;;;;5008175;28;20091;-71
2022/08/11 07:34:42;;;;;;;3.33;1.70;;;;;;;;;;5012059;28;20460;-71
2022/08/11 07:37:12;;;;;;;0.67;0.67;;;;;;;;;;5012254;28;20021;-71
2022/08/11 07:39:39;;;;;;;2.27;1.50;;;;;;;;;;5011528;28;20022;-70
2022/08/11 07:42:07;;;;;;;1.80;1.23;;;;;;;;;;5011610;28;20095;-70
2022/08/11 07:48:10;;;;;;;1.47;1.20;;;;;;;;;;5009089;28;20021;-71
2022/08/11 07:52:56;;;;;;;;;;;;;;;;;;4965700;28;20077;-71
2022/08/11 07:55:30;;;;;;;1.10;1.00;;;;;;;;;;4982664;28;19914;-70
2022/08/11 08:20:09;;;;;;;1.03;0.80;;;;;;;;;;5015415;28;20468;-71
2022/08/11 08:22:36;;;;;;;1.23;0.90;;;;;;;;;;5015322;28;20112;-70
2022/08/11 08:25:03;;;;;;;3.83;1.50;;;;;;;;;;5015162;28;20392;-70
2022/08/11 08:27:30;;;;;;;1.63;1.17;;;;;;;;;;5015333;28;20049;-71
2022/08/11 08:32:43;;;;;;;2.73;1.20;;;;;;;;;;5010065;28;20049;-70
2022/08/11 08:35:11;;;;;;;2.33;1.40;;;;;;;;;;5009690;28;20034;-71
2022/08/11 08:37:38;;;;;;;6.53;1.80;;;;;;;;;;5009640;28;20543;-70
2022/08/11 08:40:08;;;;;;;3.43;2.00;;;;;;;;;;5012867;28;20022;-70
2022/08/11 08:42:38;;;;;;;2.43;1.70;;;;;;;;;;5014645;28;20084;-71
2022/08/11 08:45:06;;;;;;;2.37;1.23;;;;;;;;;;5014406;28;20041;-71
2022/08/11 08:47:37;;;;;;;1.73;1.47;;;;;;;;;;5014520;28;20049;-70
2022/08/11 08:50:06;;;;;;;1.70;1.10;;;;;;;;;;5014316;28;20022;-70
2022/08/11 08:52:39;;;;;;;2.03;1.30;;;;;;;;;;5009740;28;20121;-70
2022/08/11 08:55:07;;;;;;;2.03;1.30;;;;;;;;;;5008880;28;20036;-72
2022/08/11 08:57:35;;;;;;;1.50;1.20;;;;;;;;;;5009269;28;20029;-73
2022/08/11 09:00:04;;;;;;;2.00;1.60;;;;;;;;;;5008945;28;20750;-73
2022/08/11 09:02:31;;;;;;;2.77;1.57;;;;;;;;;;5012925;28;20109;-73
2022/08/11 09:04:58;;;;;;;1.60;1.20;;;;;;;;;;5013746;28;20381;-72
2022/08/11 09:07:25;;;;;;;2.20;1.40;;;;;;;;;;5014084;28;20500;-72
2022/08/11 09:09:53;;;;;;;2.53;1.53;;;;;;;;;;5013638;28;20084;-72
2022/08/11 09:12:20;;;;;;;2.27;1.47;;;;;;;;;;5013451;28;20038;-73
2022/08/11 09:15:00;;;;;;;2.03;1.03;;;;;;;;;;5009668;28;20112;-73
2022/08/11 09:17:28;;;;;;;3.87;1.87;;;;;;;;;;5008221;28;20037;-72
2022/08/11 09:19:59;;;;;;;1.90;1.40;;;;;;;;;;5008819;28;20121;-72
2022/08/11 09:28:10;;;;;;;2.40;1.27;;;;;;;;;;5014220;28;20504;-72
2022/08/11 09:30:40;;;;;;;1.57;1.07;;;;;;;;;;5013464;28;20487;-73
2022/08/11 09:33:07;;;;;;;4.40;2.03;;;;;;;;;;5013514;28;20033;-72
2022/08/11 09:35:38;;;;;;;2.60;1.57;;;;;;;;;;5012596;28;20424;-72
2022/08/11 09:40:51;;;;;;;1.33;1.13;;;;;;;;;;5008286;28;20492;-73
2022/08/11 09:46:05;;;;;;;2.47;1.43;;;;;;;;;;5009874;28;20531;-72
2022/08/11 09:48:35;;;;;;;2.27;1.10;;;;;;;;;;5013200;28;20026;-72
2022/08/11 09:51:02;;;;;;;2.53;1.70;;;;;;;;;;5012981;28;20097;-73
2022/08/11 09:53:35;;;;;;;3.90;1.60;;;;;;;;;;5013591;28;20461;-73
2022/08/11 09:58:12;;;;;;;2.57;1.37;;;;;;;;;;5012823;28;20026;-72
2022/08/11 09:58:51;;;;;;;3.30;1.90;;;;;;;;;;5010025;28;20041;-72
2022/08/11 10:01:27;;;;;;;1.97;1.20;;;;;;;;;;5007593;28;20036;-73
2022/08/11 10:04:02;;;;;;;1.93;1.27;;;;;;;;;;5008037;28;20745;-72
2022/08/11 10:09:18;;;;;;;2.10;1.43;;;;;;;;;;5011290;28;20040;-73
2022/08/11 10:11:45;;;;;;;1.57;1.20;;;;;;;;;;5012790;28;20038;-73
2022/08/11 10:16:58;;;;;;;3.27;1.30;;;;;;;;;;5012527;28;20512;-72
2022/08/11 10:19:25;;;;;;;1.50;1.30;;;;;;;;;;5012500;28;20022;-72
2022/08/11 10:27:23;;;;;;;0.85;0.85;;;;;;;;;;5007490;28;20044;-72
2022/08/11 10:35:24;;;;;;;4.53;1.60;;;;;;;;;;5012789;28;20555;-72
2022/08/11 10:37:52;;;;;;;1.87;1.00;;;;;;;;;;5012315;28;20080;-72
2022/08/11 10:40:23;;;;;;;0.67;0.67;;;;;;;;;;5012584;28;20097;-72
2022/08/11 10:43:09;;;;;;;2.87;1.73;;;;;;;;;;5010836;28;20489;-72
2022/08/11 10:48:24;;;;;;;0.50;0.50;;;;;;;;;;5007644;28;20440;-72
2022/08/11 10:59:10;;;;;;;;;;;;;;;;;;5012975;28;20080;-72
2022/08/11 11:01:39;;;;;;;0.77;0.73;;;;;;;;;;5012150;28;20365;-72
2022/08/11 11:04:12;;;;;;;2.37;1.10;;;;;;;;;;5012255;28;20028;-73
2022/08/11 11:06:43;;;;;;;1.50;0.90;;;;;;;;;;5006777;28;20088;-72
2022/08/11 11:09:18;;;;;;;2.80;1.40;;;;;;;;;;5007237;28;20030;-72
2022/08/11 11:20:04;;;;;;;1.57;1.17;;;;;;;;;;5011999;28;20439;-73
2022/08/11 11:22:37;;;;;;;1.87;1.13;;;;;;;;;;5012119;28;20421;-72
2022/08/11 11:25:11;;;;;;;0.80;0.70;;;;;;;;;;5012350;28;20026;-72
2022/08/11 11:27:38;;;;;;;1.67;0.97;;;;;;;;;;5009411;28;20388;-72
2022/08/11 11:30:08;;;;;;;1.13;0.83;;;;;;;;;;5006985;28;20041;-72
2022/08/11 11:32:35;;;;;;;1.07;0.87;;;;;;;;;;5007321;28;20065;-73
2022/08/11 11:35:04;;;;;;;1.47;1.00;;;;;;;;;;5011156;28;20030;-72
2022/08/11 11:37:34;;;;;;;2.87;1.30;;;;;;;;;;5012273;28;20026;-72
2022/08/11 11:40:02;;;;;;;0.40;0.40;;;;;;;;;;5015951;28;20372;-72
2022/08/11 11:42:29;;;;;;;5.67;1.53;;;;;;;;;;5015876;28;20108;-72
2022/08/11 11:44:57;;;;;;;1.67;0.93;;;;;;;;;;5016097;28;20030;-72
2022/08/11 11:47:24;;;;;;;1.27;0.93;;;;;;;;;;5015217;28;20034;-73
2022/08/11 11:49:51;;;;;;;0.80;0.60;;;;;;;;;;5012968;28;20026;-70
2022/08/11 11:52:20;;;;;;;0.97;0.80;;;;;;;;;;5010411;28;20056;-70
2022/08/11 11:54:49;;;;;;;0.87;0.80;;;;;;;;;;5010547;28;20036;-70
2022/08/11 12:02:51;;;;;;;0.77;0.63;;;;;;;;;;5015288;28;20044;-70
2022/08/11 12:05:18;;;;;;;1.33;0.93;;;;;;;;;;5015425;28;20022;-70
2022/08/11 12:08:30;;;;;;;2.23;1.17;;;;;;;;;;5015037;28;20022;-70
2022/08/11 12:10:32;;;;;;;1.53;0.90;;;;;;;;;;5011273;28;20164;-70
2022/08/11 12:15:49;;;;;;;1.40;0.83;;;;;;;;;;5010293;28;20088;-70
2022/08/11 12:18:16;;;;;;;2.87;1.33;;;;;;;;;;5009644;28;20025;-70
2022/08/11 12:20:44;;;;;;;0.70;0.70;;;;;;;;;;5009574;28;20022;-70
2022/08/11 12:28:42;;;;;;;0.57;0.57;;;;;;;;;;5015229;28;20057;-70
2022/08/11 12:31:09;;;;;;;0.90;0.83;;;;;;;;;;5014522;28;20381;-70
2022/08/11 12:33:37;;;;;;;0.90;0.77;;;;;;;;;;5014095;28;20136;-70
2022/08/11 12:36:05;;;;;;;1.40;0.90;;;;;;;;;;5009650;28;20026;-70
2022/08/11 12:38:33;;;;;;;0.67;0.67;;;;;;;;;;5009851;28;20018;-70
2022/08/11 12:46:33;;;;;;;1.70;1.10;;;;;;;;;;5014700;28;20076;-70
2022/08/11 12:52:00;;;;;;;0.80;0.73;;;;;;;;;;5013926;28;20045;-70
2022/08/11 12:54:35;;;;;;;0.93;0.67;;;;;;;;;;5014358;28;20108;-70
2022/08/11 13:05:20;;;;;;;1.25;1.00;;;;;;;;;;5009054;28;20068;-70
2022/08/11 13:07:47;;;;;;;0.70;0.67;;;;;;;;;;5013339;28;20034;-70
2022/08/11 13:13:01;;;;;;;1.77;1.00;;;;;;;;;;5014478;28;20069;-70
2022/08/11 13:15:27;;;;;;;1.20;1.00;;;;;;;;;;5012792;28;20083;-70
2022/08/11 13:17:55;;;;;;;1.73;1.33;;;;;;;;;;5013463;28;20030;-69
2022/08/11 13:20:22;;;;;;;2.03;1.63;;;;;;;;;;5008836;28;20022;-70
2022/08/11 13:22:51;;;;;;;5.03;1.60;;;;;;;;;;5008713;28;20030;-69
2022/08/11 13:25:18;;;;;;;1.30;1.10;;;;;;;;;;5008724;28;20029;-70
2022/08/11 13:27:46;;;;;;;2.17;1.70;;;;;;;;;;5008155;28;20026;-70
2022/08/11 13:33:00;;;;;;;2.00;1.40;;;;;;;;;;5013494;28;20133;-69
2022/08/11 13:35:28;;;;;;;1.60;1.10;;;;;;;;;;5013621;28;20014;-70
2022/08/11 13:37:55;;;;;;;1.70;1.17;;;;;;;;;;5013697;28;20469;-70
2022/08/11 13:40:24;;;;;;;0.40;0.40;;;;;;;;;;5013098;28;20037;-70
2022/08/11 13:42:51;;;;;;;1.10;0.80;;;;;;;;;;5008590;28;20022;-70
2022/08/11 13:45:19;;;;;;;2.07;0.90;;;;;;;;;;5008124;28;20448;-69
2022/08/11 13:47:48;;;;;;;1.10;0.80;;;;;;;;;;5008174;28;20041;-70
2022/08/11 13:50:15;;;;;;;1.57;0.90;;;;;;;;;;5008068;28;20025;-69
2022/08/11 13:52:42;;;;;;;2.07;1.37;;;;;;;;;;5013414;28;20539;-69
2022/08/11 13:55:20;;;;;;;4.27;1.80;;;;;;;;;;5013150;28;20034;-70
2022/08/11 13:57:53;;;;;;;1.80;1.17;;;;;;;;;;5013306;28;20022;-70
2022/08/11 14:00:20;;;;;;;2.10;1.40;;;;;;;;;;5013201;28;20022;-69
2022/08/11 14:02:49;;;;;;;1.80;1.00;;;;;;;;;;5008881;28;20034;-70
2022/08/11 14:05:17;;;;;;;2.73;1.10;;;;;;;;;;5007512;28;20105;-70
2022/08/11 14:07:54;;;;;;;4.47;1.30;;;;;;;;;;5007704;28;20485;-72
2022/08/11 14:10:22;;;;;;;1.60;1.07;;;;;;;;;;5007898;28;20058;-71
2022/08/11 14:15:49;;;;;;;2.00;1.23;;;;;;;;;;5013231;28;20091;-72
2022/08/11 14:18:25;;;;;;;1.60;1.10;;;;;;;;;;5013180;28;20030;-71
2022/08/11 14:23:54;;;;;;;3.00;1.60;;;;;;;;;;4977336;28;20085;-72
2022/08/11 14:26:27;;;;;;;2.50;1.60;;;;;;;;;;4996274;28;20112;-72
2022/08/11 14:29:01;;;;;;;1.00;0.80;;;;;;;;;;5007994;28;20108;-72
2022/08/11 14:31:29;;;;;;;1.63;0.90;;;;;;;;;;5007158;28;20385;-72
2022/08/11 14:33:57;;;;;;;2.37;1.03;;;;;;;;;;5007179;28;20037;-72
2022/08/11 14:36:28;;;;;;;1.80;0.70;;;;;;;;;;5010818;28;20466;-72
2022/08/11 14:38:55;;;;;;;0.63;0.50;;;;;;;;;;5012965;28;20034;-72
2022/08/11 14:47:04;;;;;;;16.53;1.47;;;;;;;;;;5012704;28;20037;-72
2022/08/11 14:49:33;;;;;;;0.93;0.73;;;;;;;;;;4988033;28;20035;-72
2022/08/11 14:52:01;;;;;;;1.13;0.77;;;;;;;;;;5003774;28;20096;-72
2022/08/11 14:57:17;;;;;;;0.63;0.47;;;;;;;;;;5007581;28;20091;-72
2022/08/11 14:59:49;;;;;;;0.93;0.60;;;;;;;;;;5012271;28;20108;-72
2022/08/11 15:05:03;;;;;;;0.57;0.40;;;;;;;;;;5012116;28;20049;-71
2022/08/11 15:07:31;;;;;;;3.03;0.60;;;;;;;;;;5011728;28;20034;-70
2022/08/11 15:10:02;;;;;;;3.87;0.73;;;;;;;;;;5010877;28;20033;-70
2022/08/11 15:12:29;;;;;;;0.50;0.37;;;;;;;;;;4991215;28;20465;-71
2022/08/11 15:17:42;;;;;;;1.03;0.50;;;;;;;;;;5007017;28;20052;-70
2022/08/11 15:25:44;;;;;;;;;;;;;;;;;;5012495;28;20048;-70
2022/08/11 15:39:15;;;;;;;0.87;0.57;;;;;;;;;;5007242;28;20444;-71
2022/08/11 15:47:28;;;;;;;0.63;0.40;;;;;;;;;;5011305;28;20512;-70
2022/08/11 15:49:58;;;;;;;0.10;0.10;;;;;;;;;;5012061;28;20030;-70
2022/08/11 15:52:29;;;;;;;1.10;0.57;;;;;;;;;;5011293;28;20544;-71
2022/08/11 15:54:58;;;;;;;0.57;0.37;;;;;;;;;;5007987;28;20034;-71
2022/08/11 16:05:42;;;;;;;0.20;0.20;;;;;;;;;;5010344;28;20037;-71
2022/08/11 16:08:10;;;;;;;0.45;0.20;;;;;;;;;;5011106;28;20030;-71
2022/08/11 16:10:38;;;;;;;0.68;0.45;;;;;;;;;;5011192;28;20025;-70
2022/08/11 16:18:21;;;;;;;0.50;0.20;;;;;;;;;;4988112;28;20066;-70
2022/08/11 16:20:50;;;;;;;0.00;0.00;;;;;;;;;;5008921;28;20495;-71
2022/08/11 16:23:18;;;;;;;0.25;0.20;;;;;;;;;;5009710;28;20453;-71
2022/08/11 16:25:45;;;;;;;0.63;0.32;;;;;;;;;;5010129;28;20030;-71
2022/08/11 16:28:13;;;;;;;0.22;0.20;;;;;;;;;;5013424;28;20052;-72
2022/08/11 16:30:41;;;;;;;0.30;0.25;;;;;;;;;;5015045;28;20022;-71
2022/08/11 16:33:09;;;;;;;0.40;0.32;;;;;;;;;;5014550;28;20044;-71
2022/08/11 16:38:36;;;;;;;0.30;0.20;;;;;;;;;;5014395;28;20036;-71
2022/08/11 16:41:07;;;;;;;2.20;0.50;;;;;;;;;;5009489;28;20026;-70
2022/08/11 16:49:08;;;;;;;0.65;0.47;;;;;;;;;;5011007;28;20084;-71
2022/08/11 16:51:35;;;;;;;0.80;0.38;;;;;;;;;;5013959;28;20048;-70
2022/08/11 16:54:01;;;;;;;0.57;0.35;;;;;;;;;;5014295;28;20032;-71
2022/08/11 16:56:31;;;;;;;0.35;0.32;;;;;;;;;;5014517;28;20750;-71
2022/08/11 16:59:13;;;;;;;0.30;0.30;;;;;;;;;;5014573;28;20034;-71
2022/08/11 17:01:45;;;;;;;1.08;0.50;;;;;;;;;;5011889;28;20840;-71
2022/08/11 17:18:04;;;;;;;0.50;0.10;;;;;;;;;;5014419;28;20392;-71
2022/08/11 17:20:32;;;;;;;0.00;0.00;;;;;;;;;;5014262;28;20026;-71
2022/08/11 17:25:47;;;;;;;1.52;0.32;;;;;;;;;;5008982;28;20043;-71
2022/08/11 17:28:15;;;;;;;1.73;0.40;;;;;;;;;;5008626;28;20326;-71
2022/08/11 17:36:13;;;;;;;1.45;0.40;;;;;;;;;;5013663;28;20132;-71
2022/08/11 17:38:41;;;;;;;2.72;0.60;;;;;;;;;;5013384;28;20032;-71
2022/08/11 17:49:26;;;;;;;0.32;0.17;;;;;;;;;;5006999;28;20049;-71
2022/08/11 18:00:10;;;;;;;0.30;0.22;;;;;;;;;;5013524;28;20439;-71
2022/08/11 18:05:28;;;;;;;2.00;0.35;;;;;;;;;;4993838;28;20046;-71
